createdAt,value
2023-10-21T00:00:20.777Z,100.00
2023-10-21T00:02:48.977Z,100.00
2023-10-21T00:05:17.493Z,100.00
2023-10-21T00:07:45.756Z,100.00
2023-10-21T00:10:13.970Z,100.00
2023-10-21T00:12:42.149Z,100.00
2023-10-21T00:15:10.985Z,100.00
2023-10-21T00:17:41.318Z,100.00
2023-10-21T00:20:10.232Z,100.00
2023-10-21T00:22:38.693Z,100.00
2023-10-21T00:25:07.488Z,99.97
2023-10-21T00:27:35.627Z,100.00
2023-10-21T00:30:03.850Z,100.00
2023-10-21T00:32:32.093Z,100.00
2023-10-21T00:35:01.665Z,100.00
2023-10-21T00:37:29.862Z,100.00
2023-10-21T00:39:58.007Z,100.00
2023-10-21T00:42:26.078Z,100.00
2023-10-21T00:44:54.291Z,100.00
2023-10-21T00:47:22.438Z,100.00
2023-10-21T00:49:50.644Z,99.69
2023-10-21T00:52:21.145Z,99.85
2023-10-21T00:54:49.505Z,99.79
2023-10-21T00:57:18.034Z,99.83
2023-10-21T00:59:46.471Z,99.16
2023-10-21T01:02:15.214Z,98.00
2023-10-21T01:04:44.073Z,97.39
2023-10-21T01:07:17.903Z,97.84
2023-10-21T01:09:47.382Z,97.57
2023-10-21T01:12:15.861Z,98.13
2023-10-21T01:14:44.172Z,97.32
2023-10-21T01:17:12.420Z,97.69
2023-10-21T01:19:40.568Z,97.58
2023-10-21T01:22:08.745Z,96.80
2023-10-21T01:24:38.305Z,96.90
2023-10-21T01:27:06.934Z,96.71
2023-10-21T01:29:35.333Z,97.05
2023-10-21T01:32:03.674Z,97.04
2023-10-21T01:34:31.875Z,96.92
2023-10-21T01:37:00.658Z,96.73
2023-10-21T01:39:28.788Z,96.53
2023-10-21T01:41:58.450Z,96.86
2023-10-21T01:44:26.550Z,96.60
2023-10-21T01:46:54.801Z,96.85
2023-10-21T01:49:22.872Z,96.86
2023-10-21T01:51:51.050Z,96.91
2023-10-21T01:54:19.209Z,97.13
2023-10-21T01:56:47.562Z,97.56
2023-10-21T01:59:17.228Z,98.09
2023-10-21T02:01:45.506Z,99.26
2023-10-21T02:04:13.764Z,99.44
2023-10-21T02:06:41.954Z,99.80
2023-10-21T02:09:10.301Z,100.00
2023-10-21T02:11:38.447Z,98.55
2023-10-21T02:14:06.656Z,98.36
2023-10-21T02:16:36.183Z,99.23
2023-10-21T02:19:04.426Z,98.86
2023-10-21T02:21:32.587Z,99.13
2023-10-21T02:24:00.785Z,98.72
2023-10-21T02:26:28.944Z,98.79
2023-10-21T02:28:57.052Z,99.05
2023-10-21T02:31:25.437Z,99.30
2023-10-21T02:33:55.207Z,100.00
2023-10-21T02:36:23.441Z,99.92
2023-10-21T02:38:52.787Z,99.70
2023-10-21T02:41:21.261Z,99.17
2023-10-21T02:43:49.879Z,99.66
2023-10-21T02:46:18.092Z,99.51
2023-10-21T02:48:46.865Z,99.59
2023-10-21T02:51:18.878Z,99.58
2023-10-21T02:53:47.353Z,99.57
2023-10-21T02:56:16.060Z,100.00
2023-10-21T02:58:44.356Z,100.00
2023-10-21T03:01:16.967Z,100.00
2023-10-21T03:03:46.356Z,100.00
2023-10-21T03:06:17.050Z,100.00
2023-10-21T03:08:45.512Z,100.00
2023-10-21T03:11:13.856Z,100.00
2023-10-21T03:13:42.005Z,100.00
2023-10-21T03:16:12.125Z,100.00
2023-10-21T03:18:42.160Z,100.00
2023-10-21T03:21:10.971Z,100.00
2023-10-21T03:23:40.618Z,100.00
2023-10-21T03:26:09.387Z,100.00
2023-10-21T03:28:37.637Z,100.00
2023-10-21T03:31:06.482Z,100.00
2023-10-21T03:33:35.495Z,100.00
2023-10-21T03:36:05.748Z,100.00
2023-10-21T03:38:34.269Z,100.00
2023-10-21T03:41:06.400Z,100.00
2023-10-21T03:43:35.520Z,100.00
2023-10-21T03:46:05.159Z,100.00
2023-10-21T03:48:33.909Z,100.00
2023-10-21T03:51:06.602Z,100.00
2023-10-21T03:53:35.537Z,100.00
2023-10-21T03:56:05.422Z,100.00
2023-10-21T03:58:33.852Z,100.00
2023-10-21T04:01:02.370Z,100.00
2023-10-21T04:03:30.799Z,100.00
2023-10-21T04:05:59.702Z,100.00
2023-10-21T04:08:29.315Z,100.00
2023-10-21T04:10:57.494Z,100.00
2023-10-21T04:13:27.243Z,100.00
2023-10-21T04:15:55.479Z,100.00
2023-10-21T04:18:24.050Z,100.00
2023-10-21T04:20:52.659Z,100.00
2023-10-21T04:23:20.880Z,100.00
2023-10-21T04:25:49.157Z,100.00
2023-10-21T04:28:17.651Z,100.00
2023-10-21T04:30:48.325Z,100.00
2023-10-21T04:33:17.850Z,100.00
2023-10-21T04:35:46.142Z,100.00
2023-10-21T04:38:14.357Z,100.00
2023-10-21T04:40:42.506Z,100.00
2023-10-21T04:43:10.715Z,100.00
2023-10-21T04:45:38.945Z,100.00
2023-10-21T04:48:09.523Z,100.00
2023-10-21T04:50:37.742Z,100.00
2023-10-21T04:53:06.016Z,100.00
2023-10-21T04:55:34.201Z,100.00
2023-10-21T04:58:02.673Z,100.00
2023-10-21T05:00:31.358Z,100.00
2023-10-21T05:02:59.705Z,100.00
2023-10-21T05:05:29.294Z,100.00
2023-10-21T05:07:57.394Z,100.00
2023-10-21T05:10:25.542Z,100.00
2023-10-21T05:12:53.652Z,100.00
2023-10-21T05:15:21.852Z,100.00
2023-10-21T05:17:50.392Z,100.00
2023-10-21T05:20:18.797Z,100.00
2023-10-21T05:22:48.293Z,100.00
2023-10-21T05:25:16.462Z,100.00
2023-10-21T05:27:44.587Z,100.00
2023-10-21T05:30:14.825Z,100.00
2023-10-21T05:32:43.807Z,100.00
2023-10-21T05:35:11.921Z,100.00
2023-10-21T05:37:40.245Z,100.00
2023-10-21T05:40:11.236Z,100.00
2023-10-21T05:42:39.394Z,100.00
2023-10-21T05:45:09.761Z,100.00
2023-10-21T05:47:38.031Z,100.00
2023-10-21T05:50:07.025Z,100.00
2023-10-21T05:52:35.214Z,100.00
2023-10-21T05:55:06.113Z,100.00
2023-10-21T05:57:36.984Z,100.00
2023-10-21T06:00:06.547Z,100.00
2023-10-21T06:02:34.907Z,100.00
2023-10-21T06:05:04.385Z,100.00
2023-10-21T06:07:32.570Z,100.00
2023-10-21T06:10:00.661Z,100.00
2023-10-21T06:12:29.786Z,100.00
2023-10-21T06:14:59.326Z,100.00
2023-10-21T06:17:27.558Z,100.00
2023-10-21T06:19:55.770Z,100.00
2023-10-21T06:22:24.536Z,100.00
2023-10-21T06:24:52.640Z,100.00
2023-10-21T06:27:20.745Z,100.00
2023-10-21T06:29:48.868Z,100.00
2023-10-21T06:32:18.382Z,100.00
2023-10-21T06:34:46.780Z,100.00
2023-10-21T06:37:14.981Z,100.00
2023-10-21T06:39:43.096Z,100.00
2023-10-21T06:42:12.499Z,100.00
2023-10-21T06:44:40.711Z,100.00
2023-10-21T06:47:08.961Z,100.00
2023-10-21T06:49:38.540Z,100.00
2023-10-21T06:52:07.328Z,100.00
2023-10-21T06:54:38.679Z,100.00
2023-10-21T06:57:07.258Z,100.00
2023-10-21T06:59:39.226Z,100.00
2023-10-21T07:02:09.982Z,100.00
2023-10-21T07:04:39.871Z,100.00
2023-10-21T07:07:08.169Z,100.00
2023-10-21T07:09:36.389Z,100.00
2023-10-21T07:12:05.002Z,100.00
2023-10-21T07:14:34.581Z,100.00
2023-10-21T07:17:02.880Z,100.00
2023-10-21T07:19:32.298Z,100.00
2023-10-21T07:22:01.877Z,100.00
2023-10-21T07:24:31.235Z,100.00
2023-10-21T07:26:59.807Z,100.00
2023-10-21T07:29:27.969Z,100.00
2023-10-21T07:31:56.118Z,100.00
2023-10-21T07:34:24.351Z,100.00
2023-10-21T07:36:52.679Z,100.00
2023-10-21T07:39:22.139Z,100.00
2023-10-21T07:41:50.432Z,100.00
2023-10-21T07:44:20.362Z,100.00
2023-10-21T07:46:51.945Z,100.00
2023-10-21T07:49:20.081Z,100.00
2023-10-21T07:51:49.865Z,100.00
2023-10-21T07:54:18.179Z,100.00
2023-10-21T07:56:50.725Z,100.00
2023-10-21T07:59:19.296Z,100.00
2023-10-21T08:01:47.978Z,100.00
2023-10-21T08:04:16.232Z,100.00
2023-10-21T08:06:45.600Z,100.00
2023-10-21T08:09:15.620Z,100.00
2023-10-21T08:11:44.420Z,100.00
2023-10-21T08:14:14.420Z,100.00
2023-10-21T08:16:43.941Z,100.00
2023-10-21T08:19:12.955Z,100.00
2023-10-21T08:21:42.218Z,100.00
2023-10-21T08:24:12.584Z,100.00
2023-10-21T08:26:41.017Z,100.00
2023-10-21T08:29:11.504Z,100.00
2023-10-21T08:31:41.159Z,100.00
2023-10-21T08:34:14.223Z,100.00
2023-10-21T08:36:43.748Z,100.00
2023-10-21T08:39:12.510Z,100.00
2023-10-21T08:41:41.647Z,100.00
2023-10-21T08:44:11.379Z,100.00
2023-10-21T08:46:45.980Z,100.00
2023-10-21T08:49:18.256Z,100.00
2023-10-21T08:51:48.770Z,100.00
2023-10-21T08:54:18.973Z,100.00
2023-10-21T08:56:47.286Z,100.00
2023-10-21T08:59:17.510Z,100.00
2023-10-21T09:01:50.845Z,100.00
2023-10-21T09:04:22.190Z,100.00
2023-10-21T09:06:59.284Z,100.00
2023-10-21T09:09:29.324Z,100.00
2023-10-21T09:12:11.468Z,100.00
2023-10-21T09:14:53.970Z,100.00
2023-10-21T09:17:23.920Z,100.00
2023-10-21T09:19:53.297Z,100.00
2023-10-21T09:22:26.667Z,100.00
2023-10-21T09:25:10.254Z,100.00
2023-10-21T09:27:39.527Z,100.00
2023-10-21T09:30:08.714Z,100.00
2023-10-21T09:32:38.407Z,100.00
2023-10-21T09:35:26.739Z,100.00
2023-10-21T09:37:54.978Z,100.00
2023-10-21T09:40:25.795Z,100.00
2023-10-21T09:42:54.856Z,100.00
2023-10-21T09:45:26.894Z,100.00
2023-10-21T09:47:58.497Z,100.00
2023-10-21T09:50:27.652Z,100.00
2023-10-21T09:53:03.296Z,100.00
2023-10-21T09:55:33.742Z,100.00
2023-10-21T09:58:03.377Z,100.00
2023-10-21T10:00:32.328Z,100.00
2023-10-21T10:03:02.067Z,100.00
2023-10-21T10:05:32.830Z,100.00
2023-10-21T10:08:01.690Z,100.00
2023-10-21T10:10:30.408Z,100.00
2023-10-21T10:13:02.920Z,100.00
2023-10-21T10:15:32.944Z,100.00
2023-10-21T10:18:04.411Z,100.00
2023-10-21T10:20:33.716Z,100.00
2023-10-21T10:23:03.920Z,100.00
2023-10-21T10:25:36.017Z,100.00
2023-10-21T10:28:09.251Z,100.00
2023-10-21T10:30:44.926Z,100.00
2023-10-21T10:33:18.282Z,100.00
2023-10-21T10:35:50.900Z,100.00
2023-10-21T10:38:22.457Z,100.00
2023-10-21T10:40:52.772Z,100.00
2023-10-21T10:43:22.680Z,100.00
2023-10-21T10:45:50.962Z,100.00
2023-10-21T10:48:20.646Z,100.00
2023-10-21T10:50:49.071Z,100.00
2023-10-21T10:53:18.475Z,100.00
2023-10-21T10:55:49.324Z,100.00
2023-10-21T10:58:20.000Z,100.00
2023-10-21T11:00:48.637Z,100.00
2023-10-21T11:03:29.652Z,100.00
2023-10-21T11:05:59.425Z,100.00
2023-10-21T11:08:28.175Z,100.00
2023-10-21T11:11:05.286Z,100.00
2023-10-21T11:13:34.866Z,100.00
2023-10-21T11:16:06.762Z,100.00
2023-10-21T11:18:37.818Z,100.00
2023-10-21T11:21:06.518Z,100.00
2023-10-21T11:23:34.861Z,100.00
2023-10-21T11:26:09.026Z,100.00
2023-10-21T11:28:39.480Z,100.00
2023-10-21T11:31:09.717Z,100.00
2023-10-21T11:33:39.409Z,100.00
2023-10-21T11:36:09.512Z,100.00
2023-10-21T11:38:38.489Z,100.00
2023-10-21T11:41:14.223Z,100.00
2023-10-21T11:43:46.433Z,100.00
2023-10-21T11:46:14.804Z,100.00
2023-10-21T11:48:44.372Z,100.00
2023-10-21T11:51:12.762Z,100.00
2023-10-21T11:53:40.889Z,100.00
2023-10-21T11:56:34.804Z,100.00
2023-10-21T11:59:19.573Z,100.00
2023-10-21T12:02:01.560Z,100.00
2023-10-21T12:04:51.036Z,100.00
2023-10-21T12:07:35.938Z,100.00
2023-10-21T12:10:21.693Z,100.00
2023-10-21T12:13:06.606Z,100.00
2023-10-21T12:15:51.114Z,100.00
2023-10-21T12:18:36.518Z,100.00
2023-10-21T12:21:29.638Z,100.00
2023-10-21T12:24:24.027Z,100.00
2023-10-21T12:27:02.332Z,100.00
2023-10-21T12:29:47.837Z,100.00
2023-10-21T12:32:41.861Z,100.00
2023-10-21T12:35:39.921Z,100.00
2023-10-21T12:38:24.788Z,100.00
2023-10-21T12:41:16.484Z,100.00
2023-10-21T12:43:49.990Z,100.00
2023-10-21T12:46:23.313Z,100.00
2023-10-21T12:48:57.562Z,100.00
2023-10-21T12:51:30.770Z,100.00
2023-10-21T12:54:13.573Z,100.00
2023-10-21T12:56:42.933Z,100.00
2023-10-21T12:59:11.136Z,100.00
2023-10-21T13:01:40.177Z,100.00
2023-10-21T13:04:09.014Z,100.00
2023-10-21T13:06:37.746Z,100.00
2023-10-21T13:09:23.207Z,100.00
2023-10-21T13:11:52.765Z,100.00
2023-10-21T13:14:22.537Z,100.00
2023-10-21T13:16:51.056Z,100.00
2023-10-21T13:19:19.342Z,100.00
2023-10-21T13:21:47.586Z,100.00
2023-10-21T13:24:17.396Z,100.00
2023-10-21T13:26:46.132Z,100.00
2023-10-21T13:29:14.423Z,100.00
2023-10-21T13:31:42.835Z,100.00
2023-10-21T13:34:11.209Z,100.00
2023-10-21T13:36:39.546Z,100.00
2023-10-21T13:39:17.189Z,100.00
2023-10-21T13:41:47.091Z,100.00
2023-10-21T13:44:15.486Z,100.00
2023-10-21T13:46:43.662Z,100.00
2023-10-21T13:49:17.006Z,100.00
2023-10-21T13:51:46.137Z,100.00
2023-10-21T13:54:16.472Z,100.00
2023-10-21T13:56:46.595Z,100.00
2023-10-21T13:59:15.422Z,100.00
2023-10-21T14:01:44.181Z,100.00
2023-10-21T14:04:13.827Z,100.00
2023-10-21T14:06:43.232Z,100.00
2023-10-21T14:09:24.026Z,100.00
2023-10-21T14:11:54.112Z,100.00
2023-10-21T14:14:22.569Z,100.00
2023-10-21T14:16:50.875Z,100.00
2023-10-21T14:19:19.061Z,100.00
2023-10-21T14:21:47.490Z,100.00
2023-10-21T14:24:15.844Z,100.00
2023-10-21T14:26:46.279Z,100.00
2023-10-21T14:29:15.950Z,100.00
2023-10-21T14:31:46.257Z,100.00
2023-10-21T14:34:17.620Z,100.00
2023-10-21T14:36:46.827Z,100.00
2023-10-21T14:39:15.511Z,100.00
2023-10-21T14:41:46.466Z,100.00
2023-10-21T14:44:16.136Z,100.00
2023-10-21T14:46:44.334Z,100.00
2023-10-21T14:49:12.526Z,100.00
2023-10-21T14:51:41.579Z,100.00
2023-10-21T14:54:09.845Z,100.00
2023-10-21T14:56:38.302Z,100.00
2023-10-21T14:59:06.882Z,100.00
2023-10-21T15:01:37.297Z,100.00
2023-10-21T15:04:08.472Z,100.00
2023-10-21T15:06:37.188Z,100.00
2023-10-21T15:09:06.009Z,100.00
2023-10-21T15:11:34.578Z,100.00
2023-10-21T15:14:02.826Z,100.00
2023-10-21T15:16:33.816Z,100.00
2023-10-21T15:19:06.169Z,100.00
2023-10-21T15:21:34.527Z,100.00
2023-10-21T15:24:03.967Z,100.00
2023-10-21T15:26:33.104Z,100.00
2023-10-21T15:29:01.330Z,100.00
2023-10-21T15:31:29.793Z,100.00
2023-10-21T15:33:58.886Z,100.00
2023-10-21T15:36:28.618Z,100.00
2023-10-21T15:38:57.073Z,100.00
2023-10-21T15:41:26.681Z,100.00
2023-10-21T15:43:56.226Z,100.00
2023-10-21T15:46:24.584Z,100.00
2023-10-21T15:48:53.970Z,100.00
2023-10-21T15:51:22.430Z,100.00
2023-10-21T15:53:52.207Z,100.00
2023-10-21T15:56:21.859Z,100.00
2023-10-21T15:58:51.652Z,100.00
2023-10-21T16:01:19.925Z,100.00
2023-10-21T16:03:49.156Z,100.00
2023-10-21T16:06:18.720Z,100.00
2023-10-21T16:08:57.413Z,100.00
2023-10-21T16:11:27.635Z,100.00
2023-10-21T16:13:56.765Z,100.00
2023-10-21T16:16:29.274Z,100.00
2023-10-21T16:18:57.835Z,100.00
2023-10-21T16:21:26.397Z,100.00
2023-10-21T16:23:56.377Z,100.00
2023-10-21T16:26:27.760Z,100.00
2023-10-21T16:29:00.263Z,100.00
2023-10-21T16:31:29.576Z,100.00
2023-10-21T16:33:58.984Z,100.00
2023-10-21T16:36:28.837Z,100.00
2023-10-21T16:38:58.400Z,100.00
2023-10-21T16:41:28.735Z,100.00
2023-10-21T16:43:57.437Z,100.00
2023-10-21T16:46:26.894Z,100.00
2023-10-21T16:48:56.461Z,100.00
2023-10-21T16:51:25.313Z,100.00
2023-10-21T16:53:54.707Z,100.00
2023-10-21T16:56:24.478Z,100.00
2023-10-21T16:58:54.085Z,100.00
2023-10-21T17:01:23.696Z,100.00
2023-10-21T17:03:53.322Z,100.00
2023-10-21T17:06:23.514Z,100.00
2023-10-21T17:08:53.202Z,100.00
2023-10-21T17:11:22.816Z,100.00
2023-10-21T17:13:52.064Z,100.00
2023-10-21T17:16:22.089Z,100.00
2023-10-21T17:18:52.211Z,100.00
2023-10-21T17:21:23.911Z,100.00
2023-10-21T17:23:54.811Z,100.00
2023-10-21T17:26:24.646Z,100.00
2023-10-21T17:28:53.855Z,100.00
2023-10-21T17:31:26.092Z,100.00
2023-10-21T17:33:55.594Z,100.00
2023-10-21T17:36:25.069Z,100.00
2023-10-21T17:38:54.291Z,100.00
2023-10-21T17:41:23.960Z,100.00
2023-10-21T17:43:53.742Z,100.00
2023-10-21T17:46:27.060Z,100.00
2023-10-21T17:48:56.626Z,100.00
2023-10-21T17:51:26.051Z,100.00
2023-10-21T17:53:55.138Z,100.00
2023-10-21T17:56:24.428Z,100.00
2023-10-21T17:58:54.317Z,100.00
2023-10-21T18:01:25.866Z,100.00
2023-10-21T18:03:55.777Z,100.00
2023-10-21T18:06:25.576Z,100.00
2023-10-21T18:08:55.349Z,100.00
2023-10-21T18:11:26.128Z,100.00
2023-10-21T18:13:55.970Z,100.00
2023-10-21T18:16:27.394Z,100.00
2023-10-21T18:19:00.697Z,100.00
2023-10-21T18:21:30.106Z,100.00
2023-10-21T18:23:59.930Z,100.00
2023-10-21T18:26:28.965Z,100.00
2023-10-21T18:28:59.290Z,100.00
2023-10-21T18:31:32.685Z,100.00
2023-10-21T18:34:02.851Z,100.00
2023-10-21T18:36:32.502Z,100.00
2023-10-21T18:39:02.455Z,100.00
2023-10-21T18:41:30.706Z,100.00
2023-10-21T18:44:00.340Z,100.00
2023-10-21T18:46:30.273Z,100.00
2023-10-21T18:49:01.904Z,100.00
2023-10-21T18:51:34.546Z,100.00
2023-10-21T18:54:05.084Z,100.00
2023-10-21T18:56:34.443Z,100.00
2023-10-21T18:59:03.546Z,100.00
2023-10-21T19:01:37.837Z,100.00
2023-10-21T19:04:08.516Z,100.00
2023-10-21T19:06:39.529Z,100.00
2023-10-21T19:09:09.775Z,100.00
2023-10-21T19:11:39.723Z,100.00
2023-10-21T19:14:09.292Z,100.00
2023-10-21T19:16:42.378Z,100.00
2023-10-21T19:19:12.407Z,100.00
2023-10-21T19:21:43.342Z,100.00
2023-10-21T19:24:12.842Z,100.00
2023-10-21T19:26:42.408Z,100.00
2023-10-21T19:29:11.912Z,100.00
2023-10-21T19:31:44.471Z,100.00
2023-10-21T19:34:14.395Z,100.00
2023-10-21T19:36:43.987Z,100.00
2023-10-21T19:39:14.311Z,100.00
2023-10-21T19:41:43.654Z,100.00
2023-10-21T19:44:26.059Z,100.00
2023-10-21T19:46:58.682Z,100.00
2023-10-21T19:49:28.606Z,100.00
2023-10-21T19:51:58.302Z,100.00
2023-10-21T19:54:32.294Z,100.00
2023-10-21T19:57:02.711Z,100.00
2023-10-21T19:59:32.240Z,100.00
2023-10-21T20:02:02.678Z,100.00
2023-10-21T20:04:32.593Z,100.00
2023-10-21T20:07:02.111Z,100.00
2023-10-21T20:09:30.930Z,100.00
2023-10-21T20:12:00.518Z,100.00
2023-10-21T20:14:35.286Z,100.00
2023-10-21T20:17:08.368Z,100.00
2023-10-21T20:19:37.611Z,100.00
2023-10-21T20:22:07.477Z,100.00
2023-10-21T20:24:36.766Z,100.00
2023-10-21T20:27:06.253Z,100.00
2023-10-21T20:29:34.753Z,100.00
2023-10-21T20:32:03.959Z,100.00
2023-10-21T20:34:35.147Z,100.00
2023-10-21T20:37:06.378Z,100.00
2023-10-21T20:39:36.745Z,100.00
2023-10-21T20:42:06.259Z,100.00
2023-10-21T20:44:35.788Z,100.00
2023-10-21T20:47:09.167Z,100.00
2023-10-21T20:49:40.790Z,100.00
2023-10-21T20:52:14.023Z,100.00
2023-10-21T20:54:43.004Z,100.00
2023-10-21T20:57:11.413Z,100.00
2023-10-21T20:59:39.637Z,100.00
2023-10-21T21:02:08.391Z,100.00
2023-10-21T21:04:38.199Z,100.00
2023-10-21T21:07:06.758Z,100.00
2023-10-21T21:09:35.143Z,100.00
2023-10-21T21:12:03.382Z,100.00
2023-10-21T21:14:31.852Z,100.00
2023-10-21T21:16:59.992Z,100.00
2023-10-21T21:19:28.226Z,100.00
2023-10-21T21:21:58.814Z,100.00
2023-10-21T21:24:28.162Z,100.00
2023-10-21T21:26:56.484Z,100.00
2023-10-21T21:29:25.073Z,100.00
2023-10-21T21:31:53.292Z,100.00
2023-10-21T21:34:21.460Z,100.00
2023-10-21T21:36:49.844Z,100.00
2023-10-21T21:39:23.281Z,100.00
2023-10-21T21:41:51.538Z,100.00
2023-10-21T21:44:19.615Z,100.00
2023-10-21T21:46:47.787Z,100.00
2023-10-21T21:49:16.001Z,100.00
2023-10-21T21:51:44.125Z,100.00
2023-10-21T21:54:12.267Z,100.00
2023-10-21T21:56:41.778Z,100.00
2023-10-21T21:59:10.004Z,100.00
2023-10-21T22:01:38.276Z,100.00
2023-10-21T22:04:09.263Z,100.00
2023-10-21T22:06:38.031Z,100.00
2023-10-21T22:09:06.193Z,100.00
2023-10-21T22:11:34.605Z,100.00
2023-10-21T22:14:07.951Z,100.00
2023-10-21T22:16:37.235Z,100.00
2023-10-21T22:19:05.776Z,100.00
2023-10-21T22:21:33.908Z,100.00
2023-10-21T22:24:02.716Z,100.00
2023-10-21T22:26:31.180Z,100.00
2023-10-21T22:29:02.535Z,100.00
2023-10-21T22:31:33.133Z,100.00
2023-10-21T22:34:01.353Z,100.00
2023-10-21T22:36:29.415Z,100.00
2023-10-21T22:38:58.288Z,100.00
2023-10-21T22:41:26.762Z,100.00
2023-10-21T22:43:54.878Z,100.00
2023-10-21T22:46:23.036Z,100.00
2023-10-21T22:48:52.598Z,100.00
2023-10-21T22:51:20.823Z,100.00
2023-10-21T22:53:48.962Z,100.00
2023-10-21T22:56:17.154Z,100.00
2023-10-21T22:58:45.269Z,100.00
2023-10-21T23:01:14.778Z,100.00
2023-10-21T23:03:43.058Z,100.00
2023-10-21T23:06:14.212Z,100.00
2023-10-21T23:08:42.823Z,100.00
2023-10-21T23:11:11.043Z,100.00
2023-10-21T23:13:39.398Z,100.00
2023-10-21T23:16:08.110Z,100.00
2023-10-21T23:18:38.664Z,100.00
2023-10-21T23:21:07.908Z,100.00
2023-10-21T23:23:37.631Z,100.00
2023-10-21T23:26:07.086Z,100.00
2023-10-21T23:28:35.303Z,100.00
2023-10-21T23:31:04.550Z,100.00
2023-10-21T23:33:33.199Z,100.00
2023-10-21T23:36:07.710Z,100.00
2023-10-21T23:38:40.761Z,100.00
2023-10-21T23:41:09.044Z,100.00
2023-10-21T23:43:37.487Z,100.00
2023-10-21T23:46:07.959Z,100.00
2023-10-21T23:48:36.463Z,100.00
2023-10-21T23:51:05.063Z,100.00
2023-10-21T23:53:33.503Z,100.00
2023-10-21T23:56:03.045Z,100.00
2023-10-21T23:58:31.331Z,100.00
